createdAt,value
2019-04-04T00:01:28.992Z,1.13
2019-04-04T00:03:59.040Z,1.10
2019-04-04T00:06:27.719Z,1.10
2019-04-04T00:08:56.242Z,1.10
2019-04-04T00:11:24.694Z,1.33
2019-04-04T00:13:53.259Z,1.20
2019-04-04T00:16:21.717Z,1.23
2019-04-04T00:18:50.161Z,1.60
2019-04-04T00:21:18.589Z,1.50
2019-04-04T00:23:47.015Z,1.30
2019-04-04T00:26:15.457Z,1.30
2019-04-04T00:28:44.122Z,1.23
2019-04-04T00:31:14.092Z,1.43
2019-04-04T00:33:42.494Z,1.60
2019-04-04T00:36:10.963Z,1.53
2019-04-04T00:38:39.382Z,1.40
2019-04-04T00:41:07.977Z,1.50
2019-04-04T00:43:36.390Z,1.30
2019-04-04T00:46:04.895Z,1.10
2019-04-04T00:48:34.264Z,1.60
2019-04-04T00:51:03.398Z,1.20
2019-04-04T00:53:31.794Z,1.20
2019-04-04T00:56:00.229Z,1.30
2019-04-04T00:58:28.633Z,1.40
2019-04-04T01:00:57.063Z,1.30
2019-04-04T01:03:25.478Z,1.50
2019-04-04T01:05:53.994Z,1.27
2019-04-04T01:08:22.392Z,1.60
2019-04-04T01:10:50.859Z,1.80
2019-04-04T01:13:19.289Z,1.83
2019-04-04T01:15:47.726Z,2.00
2019-04-04T01:18:16.162Z,1.60
2019-04-04T01:20:44.636Z,1.67
2019-04-04T01:23:13.053Z,1.47
2019-04-04T01:25:41.486Z,1.63
2019-04-04T01:28:09.894Z,1.47
2019-04-04T01:30:38.321Z,1.63
2019-04-04T01:33:06.769Z,1.80
2019-04-04T01:35:36.713Z,2.00
2019-04-04T01:38:05.166Z,1.40
2019-04-04T01:40:33.852Z,1.60
2019-04-04T01:43:02.461Z,1.90
2019-04-04T01:45:30.952Z,1.63
2019-04-04T01:47:59.367Z,1.80
2019-04-04T01:50:27.769Z,1.90
2019-04-04T01:52:58.807Z,1.97
2019-04-04T01:55:26.364Z,2.07
2019-04-04T01:57:54.840Z,2.00
2019-04-04T02:00:23.252Z,1.93
2019-04-04T02:02:52.397Z,2.00
2019-04-04T02:05:22.454Z,2.10
2019-04-04T02:07:50.962Z,1.80
2019-04-04T02:10:19.373Z,2.20
2019-04-04T02:12:47.816Z,1.80
2019-04-04T02:15:16.231Z,1.90
2019-04-04T02:17:44.748Z,2.10
2019-04-04T02:20:13.237Z,1.80
2019-04-04T02:22:41.669Z,2.37
2019-04-04T02:25:10.246Z,2.00
2019-04-04T02:27:38.742Z,2.07
2019-04-04T02:30:07.875Z,2.17
2019-04-04T02:32:36.351Z,1.97
2019-04-04T02:35:10.064Z,1.73
2019-04-04T02:37:36.462Z,1.93
2019-04-04T02:40:09.074Z,2.33
2019-04-04T02:42:38.650Z,2.87
2019-04-04T02:45:07.325Z,2.20
2019-04-04T02:47:35.718Z,2.87
2019-04-04T02:50:05.875Z,2.20
2019-04-04T02:52:34.272Z,2.60
2019-04-04T02:55:02.815Z,2.97
2019-04-04T02:57:31.275Z,2.80
2019-04-04T02:59:59.942Z,1.97
2019-04-04T03:02:28.341Z,3.10
2019-04-04T03:04:56.772Z,2.83
2019-04-04T03:07:29.910Z,2.47
2019-04-04T03:09:55.547Z,2.80
2019-04-04T03:12:26.133Z,2.80
2019-04-04T03:14:54.167Z,3.00
2019-04-04T03:17:22.584Z,2.70
2019-04-04T03:19:51.085Z,2.73
2019-04-04T03:22:19.488Z,2.87
2019-04-04T03:24:48.014Z,3.07
2019-04-04T03:27:16.413Z,3.00
2019-04-04T03:29:44.852Z,3.70
2019-04-04T03:32:16.073Z,3.67
2019-04-04T03:34:48.596Z,3.77
2019-04-04T03:37:13.665Z,3.90
2019-04-04T03:39:42.109Z,3.93
2019-04-04T03:42:10.657Z,3.53
2019-04-04T03:44:39.096Z,3.67
2019-04-04T03:47:09.998Z,3.97
2019-04-04T03:49:37.675Z,5.40
2019-04-04T03:52:10.119Z,5.10
2019-04-04T03:54:36.245Z,5.03
2019-04-04T03:57:04.669Z,4.90
2019-04-04T03:59:33.165Z,4.80
2019-04-04T04:02:01.692Z,6.00
2019-04-04T04:04:30.128Z,5.30
2019-04-04T04:06:58.550Z,6.37
2019-04-04T04:09:27.285Z,6.90
2019-04-04T04:11:55.870Z,6.23
2019-04-04T04:14:24.297Z,6.17
2019-04-04T04:16:52.747Z,7.20
2019-04-04T04:19:24.258Z,7.53
2019-04-04T04:21:51.327Z,6.33
2019-04-04T04:24:19.728Z,7.20
2019-04-04T04:26:48.176Z,7.17
2019-04-04T04:29:18.247Z,7.00
2019-04-04T04:31:49.301Z,7.17
2019-04-04T04:34:16.800Z,6.67
2019-04-04T04:36:47.650Z,6.23
2019-04-04T04:39:15.345Z,5.87
2019-04-04T04:41:44.266Z,5.87
2019-04-04T04:44:12.673Z,6.20
2019-04-04T04:46:41.117Z,5.60
2019-04-04T04:49:09.556Z,6.10
2019-04-04T04:51:38.033Z,6.50
2019-04-04T04:54:06.574Z,6.57
2019-04-04T04:56:35.017Z,6.63
2019-04-04T04:59:03.481Z,6.47
2019-04-04T05:01:31.976Z,7.10
2019-04-04T05:04:02.557Z,7.07
2019-04-04T05:06:30.546Z,6.03
2019-04-04T05:08:58.972Z,6.47
2019-04-04T05:11:27.390Z,6.53
2019-04-04T05:13:56.104Z,7.93
2019-04-04T05:16:25.950Z,7.53
2019-04-04T05:18:54.417Z,9.27
2019-04-04T05:21:25.501Z,8.17
2019-04-04T05:23:54.558Z,9.20
2019-04-04T05:26:22.969Z,9.37
2019-04-04T05:28:51.402Z,9.13
2019-04-04T05:31:19.838Z,10.70
2019-04-04T05:33:48.346Z,10.83
2019-04-04T05:36:16.792Z,10.27
2019-04-04T05:38:47.125Z,11.50
2019-04-04T05:41:16.626Z,11.73
2019-04-04T05:43:45.363Z,12.53
2019-04-04T05:46:13.928Z,12.70
2019-04-04T05:48:42.417Z,12.13
2019-04-04T05:51:10.850Z,12.70
2019-04-04T05:53:39.314Z,14.00
2019-04-04T05:56:07.869Z,13.27
2019-04-04T05:58:36.301Z,14.43
2019-04-04T06:01:06.760Z,14.50
2019-04-04T06:03:37.110Z,14.40
2019-04-04T06:06:05.588Z,13.87
2019-04-04T06:08:34.063Z,13.40
2019-04-04T06:11:02.504Z,15.30
2019-04-04T06:13:30.939Z,16.33
2019-04-04T06:16:02.077Z,17.50
2019-04-04T06:18:31.080Z,14.60
2019-04-04T06:20:59.527Z,12.33
2019-04-04T06:23:28.024Z,12.17
2019-04-04T06:25:56.460Z,13.10
2019-04-04T06:28:25.164Z,12.80
2019-04-04T06:30:54.295Z,14.30
2019-04-04T06:33:22.838Z,13.90
2019-04-04T06:35:51.281Z,14.17
2019-04-04T06:38:23.073Z,13.60
2019-04-04T06:40:51.437Z,12.70
2019-04-04T06:43:19.856Z,11.90
2019-04-04T06:45:48.315Z,14.47
2019-04-04T06:48:16.746Z,12.80
2019-04-04T06:50:45.189Z,12.83
2019-04-04T06:53:13.617Z,12.30
2019-04-04T06:55:42.273Z,12.13
2019-04-04T06:58:10.686Z,13.43
2019-04-04T07:00:41.902Z,13.53
2019-04-04T07:03:09.280Z,15.07
2019-04-04T07:05:38.811Z,14.37
2019-04-04T07:08:07.433Z,12.70
2019-04-04T07:10:35.859Z,14.83
2019-04-04T07:13:14.860Z,13.23
2019-04-04T07:15:46.130Z,11.10
2019-04-04T07:18:04.694Z,13.07
2019-04-04T07:20:33.113Z,13.53
2019-04-04T07:23:01.561Z,14.07
2019-04-04T07:25:29.992Z,13.13
2019-04-04T07:27:58.430Z,13.37
2019-04-04T07:30:28.490Z,12.20
2019-04-04T07:32:57.095Z,13.90
2019-04-04T07:35:25.524Z,13.57
2019-04-04T07:37:57.272Z,12.67
2019-04-04T07:40:24.109Z,12.40
2019-04-04T07:42:52.551Z,15.93
2019-04-04T07:45:20.977Z,14.47
2019-04-04T07:47:49.425Z,14.47
2019-04-04T07:50:17.861Z,13.63
2019-04-04T07:52:46.301Z,13.77
2019-04-04T07:55:14.867Z,13.20
2019-04-04T07:57:44.850Z,14.40
2019-04-04T08:00:13.616Z,13.50
2019-04-04T08:02:42.060Z,13.20
2019-04-04T08:05:13.002Z,12.70
2019-04-04T08:07:40.838Z,12.37
2019-04-04T08:10:20.035Z,13.60
2019-04-04T08:12:40.100Z,14.43
2019-04-04T08:15:08.675Z,13.07
2019-04-04T08:17:37.101Z,13.47
2019-04-04T08:20:06.499Z,15.50
2019-04-04T08:22:34.908Z,14.47
2019-04-04T08:25:03.700Z,15.80
2019-04-04T08:27:32.193Z,14.17
2019-04-04T08:30:00.664Z,15.47
2019-04-04T08:32:29.082Z,15.80
2019-04-04T08:34:57.516Z,14.70
2019-04-04T08:37:26.035Z,16.47
2019-04-04T08:39:54.546Z,15.77
2019-04-04T08:42:22.971Z,15.60
2019-04-04T08:44:51.409Z,16.33
2019-04-04T08:47:19.897Z,16.53
2019-04-04T08:49:48.373Z,15.50
2019-04-04T08:52:20.542Z,14.20
2019-04-04T08:54:46.974Z,14.60
2019-04-04T08:57:15.382Z,15.83
2019-04-04T08:59:43.909Z,14.80
2019-04-04T09:02:12.424Z,15.37
2019-04-04T09:04:40.901Z,14.50
2019-04-04T09:07:09.362Z,13.57
2019-04-04T09:09:37.924Z,12.33
2019-04-04T09:12:06.452Z,11.87
2019-04-04T09:14:34.941Z,14.97
2019-04-04T09:17:03.394Z,13.97
2019-04-04T09:19:31.819Z,13.20
2019-04-04T09:22:00.273Z,14.00
2019-04-04T09:24:28.740Z,13.27
2019-04-04T09:26:57.308Z,12.37
2019-04-04T09:29:25.731Z,14.93
2019-04-04T09:31:54.177Z,14.03
2019-04-04T09:34:22.593Z,15.43
2019-04-04T09:36:51.037Z,13.80
2019-04-04T09:39:19.471Z,14.87
2019-04-04T09:41:48.160Z,15.40
2019-04-04T09:44:16.681Z,16.50
2019-04-04T09:46:45.387Z,15.57
2019-04-04T09:49:13.928Z,14.57
2019-04-04T09:51:42.650Z,13.87
2019-04-04T09:54:11.301Z,15.73
2019-04-04T09:56:40.058Z,15.30
2019-04-04T09:59:08.535Z,15.20
2019-04-04T10:01:37.076Z,14.20
2019-04-04T10:04:05.723Z,15.50
2019-04-04T10:06:34.267Z,13.20
2019-04-04T10:09:15.019Z,14.00
2019-04-04T10:11:33.677Z,15.20
2019-04-04T10:14:04.156Z,13.57
2019-04-04T10:16:32.270Z,13.97
2019-04-04T10:19:00.718Z,13.47
2019-04-04T10:21:29.151Z,13.87
2019-04-04T10:23:57.603Z,13.73
2019-04-04T10:26:26.017Z,14.37
2019-04-04T10:28:54.462Z,14.90
2019-04-04T10:31:22.952Z,13.50
2019-04-04T10:33:52.072Z,13.37
2019-04-04T10:36:20.487Z,15.53
2019-04-04T10:38:48.912Z,15.07
2019-04-04T10:41:17.400Z,14.97
2019-04-04T10:43:45.859Z,13.43
2019-04-04T10:46:14.365Z,13.10
2019-04-04T10:48:42.804Z,11.10
2019-04-04T10:51:11.248Z,11.27
2019-04-04T10:53:39.694Z,10.10
2019-04-04T10:56:08.106Z,8.60
2019-04-04T10:58:36.539Z,7.97
2019-04-04T11:01:04.964Z,6.80
2019-04-04T11:03:33.386Z,8.10
2019-04-04T11:06:01.820Z,7.47
2019-04-04T11:08:30.249Z,7.17
2019-04-04T11:10:59.006Z,7.60
2019-04-04T11:13:33.363Z,6.63
2019-04-04T11:15:57.883Z,7.73
2019-04-04T11:18:26.329Z,8.50
2019-04-04T11:20:54.755Z,7.60
2019-04-04T11:23:23.170Z,7.37
2019-04-04T11:25:53.245Z,6.47
2019-04-04T11:28:21.664Z,6.60
2019-04-04T11:30:50.113Z,6.93
2019-04-04T11:33:18.532Z,6.40
2019-04-04T11:35:46.972Z,6.60
2019-04-04T11:38:15.404Z,6.37
2019-04-04T11:40:43.938Z,6.77
2019-04-04T11:43:12.381Z,6.40
2019-04-04T11:45:40.825Z,8.20
2019-04-04T11:48:09.314Z,6.23
2019-04-04T11:50:39.760Z,6.63
2019-04-04T11:53:07.949Z,5.67
2019-04-04T11:55:36.605Z,6.03
2019-04-04T11:58:05.102Z,7.10
2019-04-04T12:00:41.138Z,6.20
2019-04-04T12:03:09.554Z,6.60
2019-04-04T12:05:38.011Z,5.20
2019-04-04T12:08:06.420Z,6.00
2019-04-04T12:10:34.985Z,5.80
2019-04-04T12:13:03.435Z,5.63
2019-04-04T12:15:31.905Z,5.77
2019-04-04T12:18:00.308Z,5.73
2019-04-04T12:20:28.772Z,5.13
2019-04-04T12:22:57.181Z,5.40
2019-04-04T12:25:25.584Z,5.40
2019-04-04T12:27:54.046Z,5.20
2019-04-04T12:30:22.468Z,4.97
2019-04-04T12:32:50.922Z,5.10
2019-04-04T12:35:19.423Z,4.40
2019-04-04T12:37:47.909Z,4.90
2019-04-04T12:40:20.788Z,4.80
2019-04-04T12:42:46.629Z,4.07
2019-04-04T12:45:15.351Z,3.90
2019-04-04T12:47:43.785Z,4.00
2019-04-04T12:50:12.339Z,3.80
2019-04-04T12:52:40.804Z,3.03
2019-04-04T12:55:09.462Z,3.40
2019-04-04T12:57:37.894Z,2.70
2019-04-04T13:00:08.740Z,2.43
2019-04-04T13:02:37.202Z,2.70
2019-04-04T13:05:07.708Z,2.43
2019-04-04T13:07:36.313Z,2.13
2019-04-04T13:10:11.797Z,2.57
2019-04-04T13:12:37.369Z,2.70
2019-04-04T13:15:09.309Z,2.57
2019-04-04T13:17:37.741Z,2.17
2019-04-04T13:20:07.412Z,2.50
2019-04-04T13:22:36.012Z,2.47
2019-04-04T13:25:07.577Z,2.00
2019-04-04T13:27:36.173Z,2.33
2019-04-04T13:30:07.684Z,2.20
2019-04-04T13:32:36.133Z,2.37
2019-04-04T13:35:05.880Z,2.20
2019-04-04T13:37:34.385Z,2.77
2019-04-04T13:40:03.271Z,2.63
2019-04-04T13:42:31.711Z,2.53
2019-04-04T13:45:00.147Z,3.20
2019-04-04T13:47:28.579Z,2.70
2019-04-04T13:49:57.027Z,2.33
2019-04-04T13:52:26.471Z,2.60
2019-04-04T13:54:55.948Z,2.90
2019-04-04T13:57:24.793Z,2.67
2019-04-04T13:59:53.234Z,3.40
2019-04-04T14:02:21.652Z,3.00
2019-04-04T14:04:50.114Z,2.97
2019-04-04T14:07:18.580Z,2.40
2019-04-04T14:09:47.075Z,2.63
2019-04-04T14:12:15.639Z,2.87
2019-04-04T14:14:45.662Z,2.70
2019-04-04T14:17:14.106Z,3.00
2019-04-04T14:19:42.630Z,3.20
2019-04-04T14:22:11.068Z,2.83
2019-04-04T14:24:39.524Z,2.77
2019-04-04T14:27:08.121Z,3.10
2019-04-04T14:29:36.701Z,2.33
2019-04-04T14:32:05.213Z,2.53
2019-04-04T14:34:33.624Z,2.60
2019-04-04T14:37:02.060Z,2.37
2019-04-04T14:39:30.489Z,2.60
2019-04-04T14:41:58.952Z,2.10
2019-04-04T14:44:28.100Z,2.57
2019-04-04T14:46:57.518Z,2.70
2019-04-04T14:49:25.950Z,2.97
2019-04-04T14:51:54.481Z,2.20
2019-04-04T14:54:22.900Z,1.90
2019-04-04T14:56:51.359Z,2.03
2019-04-04T14:59:19.818Z,1.70
2019-04-04T15:01:48.246Z,1.93
2019-04-04T15:04:16.719Z,2.17
2019-04-04T15:06:45.248Z,2.00
2019-04-04T15:09:13.896Z,2.30
2019-04-04T15:11:42.342Z,1.50
2019-04-04T15:14:10.762Z,1.77
2019-04-04T15:16:39.252Z,1.50
2019-04-04T15:19:07.744Z,1.70
2019-04-04T15:21:36.268Z,1.83
2019-04-04T15:24:04.765Z,2.00
2019-04-04T15:26:33.229Z,1.90
2019-04-04T15:29:01.664Z,1.73
2019-04-04T15:31:30.121Z,2.20
2019-04-04T15:33:58.572Z,1.90
2019-04-04T15:36:27.074Z,1.90
2019-04-04T15:38:55.570Z,1.73
2019-04-04T15:41:35.882Z,1.50
2019-04-04T15:43:54.262Z,1.30
2019-04-04T15:46:22.698Z,1.30
2019-04-04T15:48:51.169Z,1.60
2019-04-04T15:51:19.655Z,1.70
2019-04-04T15:53:48.126Z,2.13
2019-04-04T15:56:16.533Z,1.93
2019-04-04T15:58:45.060Z,1.87
2019-04-04T16:01:13.502Z,1.70
2019-04-04T16:03:42.036Z,1.90
2019-04-04T16:06:10.617Z,2.00
2019-04-04T16:08:39.110Z,2.33
2019-04-04T16:11:07.592Z,2.20
2019-04-04T16:13:36.996Z,2.30
2019-04-04T16:16:05.488Z,2.23
2019-04-04T16:18:33.957Z,2.00
2019-04-04T16:21:02.393Z,2.30
2019-04-04T16:23:30.916Z,2.47
2019-04-04T16:25:59.338Z,2.70
2019-04-04T16:28:27.786Z,2.63
2019-04-04T16:30:56.279Z,2.10
2019-04-04T16:33:26.513Z,2.37
2019-04-04T16:35:54.888Z,2.27
2019-04-04T16:38:23.314Z,3.10
2019-04-04T16:40:51.764Z,2.10
2019-04-04T16:43:20.192Z,2.07
2019-04-04T16:45:48.668Z,2.00
2019-04-04T16:48:17.218Z,2.10
2019-04-04T16:50:45.658Z,2.00
2019-04-04T16:53:14.256Z,2.07
2019-04-04T16:55:42.811Z,1.40
2019-04-04T16:58:11.234Z,1.30
2019-04-04T17:00:39.771Z,1.43
2019-04-04T17:03:08.246Z,1.60
2019-04-04T17:05:36.755Z,1.67
2019-04-04T17:08:05.245Z,1.10
2019-04-04T17:10:33.763Z,1.00
2019-04-04T17:13:02.192Z,1.20
2019-04-04T17:15:30.631Z,1.00
2019-04-04T17:17:59.122Z,1.10
2019-04-04T17:20:27.616Z,1.23
2019-04-04T17:22:56.053Z,1.10
2019-04-04T17:25:24.499Z,1.20
2019-04-04T17:27:53.066Z,1.10
2019-04-04T17:30:22.117Z,0.90
2019-04-04T17:32:50.774Z,0.97
2019-04-04T17:35:19.433Z,1.00
2019-04-04T17:37:47.915Z,1.00
2019-04-04T17:40:17.129Z,1.10
2019-04-04T17:45:16.346Z,1.10
2019-04-04T17:47:45.281Z,1.40
2019-04-04T17:50:17.665Z,1.30
2019-04-04T17:52:45.022Z,1.00
2019-04-04T17:55:14.615Z,1.20
2019-04-04T17:57:43.292Z,0.93
2019-04-04T18:00:15.106Z,1.40
2019-04-04T18:02:43.612Z,1.20
2019-04-04T18:05:12.199Z,1.40
2019-04-04T18:07:40.728Z,1.30
2019-04-04T18:10:10.604Z,1.03
2019-04-04T18:12:40.633Z,1.30
2019-04-04T18:15:09.657Z,1.30
2019-04-04T18:17:38.216Z,1.40
2019-04-04T18:20:07.865Z,1.33
2019-04-04T18:22:36.911Z,1.40
2019-04-04T18:25:08.991Z,1.30
2019-04-04T18:27:37.461Z,1.37
2019-04-04T18:30:10.927Z,1.40
2019-04-04T18:32:39.469Z,1.20
2019-04-04T18:35:08.510Z,1.40
2019-04-04T18:37:37.472Z,1.70
2019-04-04T18:40:10.019Z,1.57
2019-04-04T18:42:38.549Z,1.80
2019-04-04T18:45:08.850Z,2.27
2019-04-04T18:47:37.434Z,2.03
2019-04-04T18:50:09.342Z,1.90
2019-04-04T18:52:38.011Z,1.73
2019-04-04T18:55:19.047Z,2.00
2019-04-04T18:57:38.213Z,1.90
2019-04-04T19:00:11.646Z,2.33
2019-04-04T19:02:40.896Z,1.63
2019-04-04T19:05:10.948Z,1.70
2019-04-04T19:07:40.122Z,2.00
2019-04-04T19:10:09.247Z,2.10
2019-04-04T19:12:38.038Z,2.20
2019-04-04T19:15:07.833Z,1.97
2019-04-04T19:17:36.706Z,2.30
2019-04-04T19:20:10.121Z,2.10
2019-04-04T19:22:39.237Z,2.50
2019-04-04T19:25:08.432Z,2.10
2019-04-04T19:27:37.042Z,2.70
2019-04-04T19:30:10.521Z,3.17
2019-04-04T19:32:39.029Z,4.10
2019-04-04T19:35:08.154Z,3.50
2019-04-04T19:37:36.778Z,3.13
2019-04-04T19:40:07.278Z,3.10
2019-04-04T19:42:35.935Z,3.10
2019-04-04T19:45:09.274Z,3.07
2019-04-04T19:47:37.917Z,3.50
2019-04-04T19:50:09.509Z,3.30
2019-04-04T19:52:38.242Z,3.23
2019-04-04T19:55:07.370Z,3.10
2019-04-04T19:57:35.951Z,3.77
2019-04-04T20:00:09.423Z,3.73
2019-04-04T20:02:37.978Z,3.93
2019-04-04T20:05:06.879Z,3.97
2019-04-04T20:07:35.479Z,5.20
2019-04-04T20:10:06.316Z,4.23
2019-04-04T20:12:34.918Z,4.67
2019-04-04T20:15:04.393Z,4.43
2019-04-04T20:17:33.015Z,5.57
2019-04-04T20:20:01.450Z,6.00
2019-04-04T20:22:30.070Z,6.00
2019-04-04T20:24:58.823Z,6.33
2019-04-04T20:27:27.372Z,5.57
2019-04-04T20:29:55.910Z,5.93
2019-04-04T20:32:24.519Z,6.30
2019-04-04T20:34:53.110Z,5.50
2019-04-04T20:37:21.567Z,4.90
2019-04-04T20:39:50.082Z,4.60
2019-04-04T20:42:18.596Z,5.10
2019-04-04T20:44:47.021Z,6.63
2019-04-04T20:47:15.467Z,5.60
2019-04-04T20:49:43.953Z,5.00
2019-04-04T20:52:12.555Z,4.57
2019-04-04T20:54:41.011Z,4.90
2019-04-04T20:57:09.629Z,5.27
2019-04-04T20:59:38.087Z,5.60
2019-04-04T21:02:06.652Z,5.57
2019-04-04T21:04:35.193Z,4.80
2019-04-04T21:07:03.738Z,6.00
2019-04-04T21:09:32.349Z,5.93
2019-04-04T21:12:00.903Z,5.33
2019-04-04T21:14:29.374Z,5.90
2019-04-04T21:16:57.873Z,5.50
2019-04-04T21:19:26.475Z,4.90
2019-04-04T21:21:55.110Z,5.17
2019-04-04T21:24:23.597Z,5.23
2019-04-04T21:26:52.099Z,4.87
2019-04-04T21:29:20.651Z,5.50
2019-04-04T21:31:49.224Z,5.20
2019-04-04T21:34:17.684Z,5.20
2019-04-04T21:36:46.192Z,5.50
2019-04-04T21:39:14.726Z,5.43
2019-04-04T21:41:43.160Z,4.73
2019-04-04T21:44:11.647Z,4.80
2019-04-04T21:46:40.374Z,4.53
2019-04-04T21:49:08.840Z,5.17
2019-04-04T21:51:37.279Z,5.03
2019-04-04T21:54:05.749Z,5.03
2019-04-04T21:56:34.179Z,4.40
2019-04-04T21:59:02.621Z,4.80
2019-04-04T22:01:31.221Z,4.70
2019-04-04T22:03:59.967Z,5.30
2019-04-04T22:06:30.198Z,5.27
2019-04-04T22:08:58.648Z,5.90
2019-04-04T22:11:27.207Z,5.03
2019-04-04T22:13:55.641Z,5.80
2019-04-04T22:16:24.078Z,5.67
2019-04-04T22:18:52.566Z,6.00
2019-04-04T22:21:21.014Z,6.27
2019-04-04T22:23:49.571Z,5.87
2019-04-04T22:26:18.103Z,6.20
2019-04-04T22:28:46.598Z,5.80
2019-04-04T22:31:15.118Z,6.53
2019-04-04T22:33:43.670Z,6.43
2019-04-04T22:36:12.179Z,6.30
2019-04-04T22:38:40.582Z,6.77
2019-04-04T22:41:09.053Z,7.00
2019-04-04T22:43:37.469Z,6.47
2019-04-04T22:46:06.010Z,6.60
2019-04-04T22:48:34.465Z,6.50
2019-04-04T22:51:02.902Z,6.97
2019-04-04T22:53:31.447Z,7.60
2019-04-04T22:55:59.906Z,7.30
2019-04-04T22:58:29.024Z,8.20
2019-04-04T23:00:57.615Z,7.37
2019-04-04T23:03:27.259Z,7.30
2019-04-04T23:05:56.146Z,8.20
2019-04-04T23:08:24.697Z,7.33
2019-04-04T23:10:53.123Z,7.43
2019-04-04T23:13:21.586Z,7.00
2019-04-04T23:15:50.135Z,7.83
2019-04-04T23:18:18.675Z,6.77
2019-04-04T23:20:47.185Z,7.60
2019-04-04T23:23:17.424Z,6.60
2019-04-04T23:25:45.898Z,7.37
2019-04-04T23:28:14.440Z,8.20
2019-04-04T23:30:42.853Z,7.70
2019-04-04T23:33:11.301Z,7.17
2019-04-04T23:35:39.719Z,6.73
2019-04-04T23:38:08.240Z,7.50
2019-04-04T23:40:36.672Z,6.80
2019-04-04T23:43:05.258Z,7.20
2019-04-04T23:45:33.683Z,7.37
2019-04-04T23:48:02.227Z,7.37
2019-04-04T23:50:30.641Z,7.30
2019-04-04T23:52:59.075Z,6.53
2019-04-04T23:55:27.523Z,6.17
2019-04-04T23:57:55.981Z,7.07
